sensor_id;sensor_type;location;lat;lon;timestamp;temperature;humidity
19880;DHT22;10102;50.828;4.416;2023-09-12T00:00:10;23.70;99.90
19880;DHT22;10102;50.828;4.416;2023-09-12T00:02:37;23.60;99.90
19880;DHT22;10102;50.828;4.416;2023-09-12T00:05:03;23.70;99.90
19880;DHT22;10102;50.828;4.416;2023-09-12T00:09:56;23.70;99.90
19880;DHT22;10102;50.828;4.416;2023-09-12T00:12:23;23.50;99.90
19880;DHT22;10102;50.828;4.416;2023-09-12T00:17:18;23.60;99.90
19880;DHT22;10102;50.828;4.416;2023-09-12T00:19:44;23.50;99.90
19880;DHT22;10102;50.828;4.416;2023-09-12T00:22:10;23.70;99.90
19880;DHT22;10102;50.828;4.416;2023-09-12T00:24:36;23.70;99.90
19880;DHT22;10102;50.828;4.416;2023-09-12T00:27:04;23.50;99.90
19880;DHT22;10102;50.828;4.416;2023-09-12T00:29:30;23.70;99.90
19880;DHT22;10102;50.828;4.416;2023-09-12T00:31:56;23.70;99.90
19880;DHT22;10102;50.828;4.416;2023-09-12T00:34:22;23.70;99.90
19880;DHT22;10102;50.828;4.416;2023-09-12T00:36:47;23.50;99.90
19880;DHT22;10102;50.828;4.416;2023-09-12T00:39:13;23.50;99.90
19880;DHT22;10102;50.828;4.416;2023-09-12T00:41:39;23.40;99.90
19880;DHT22;10102;50.828;4.416;2023-09-12T00:44:05;23.10;99.90
19880;DHT22;10102;50.828;4.416;2023-09-12T00:46:31;23.10;99.90
19880;DHT22;10102;50.828;4.416;2023-09-12T00:48:58;22.90;99.90
19880;DHT22;10102;50.828;4.416;2023-09-12T00:51:25;22.80;99.90
19880;DHT22;10102;50.828;4.416;2023-09-12T00:53:51;22.80;99.90
19880;DHT22;10102;50.828;4.416;2023-09-12T00:56:18;22.80;99.90
19880;DHT22;10102;50.828;4.416;2023-09-12T00:58:45;22.80;99.90
19880;DHT22;10102;50.828;4.416;2023-09-12T01:01:11;22.80;99.90
19880;DHT22;10102;50.828;4.416;2023-09-12T01:03:37;22.80;99.90
19880;DHT22;10102;50.828;4.416;2023-09-12T01:06:04;22.70;99.90
19880;DHT22;10102;50.828;4.416;2023-09-12T01:08:32;22.80;99.90
19880;DHT22;10102;50.828;4.416;2023-09-12T01:10:58;22.90;99.90
19880;DHT22;10102;50.828;4.416;2023-09-12T01:13:24;22.70;99.90
19880;DHT22;10102;50.828;4.416;2023-09-12T01:15:50;22.80;99.90
19880;DHT22;10102;50.828;4.416;2023-09-12T01:18:16;22.80;99.90
19880;DHT22;10102;50.828;4.416;2023-09-12T01:21:08;22.90;99.90
19880;DHT22;10102;50.828;4.416;2023-09-12T01:29:40;22.70;99.90
19880;DHT22;10102;50.828;4.416;2023-09-12T01:32:06;22.70;99.90
19880;DHT22;10102;50.828;4.416;2023-09-12T01:34:32;22.80;99.90
19880;DHT22;10102;50.828;4.416;2023-09-12T01:36:58;22.70;99.90
19880;DHT22;10102;50.828;4.416;2023-09-12T01:39:23;22.70;99.90
19880;DHT22;10102;50.828;4.416;2023-09-12T01:41:50;22.60;99.90
19880;DHT22;10102;50.828;4.416;2023-09-12T01:44:21;22.60;99.90
19880;DHT22;10102;50.828;4.416;2023-09-12T01:46:51;22.50;99.90
19880;DHT22;10102;50.828;4.416;2023-09-12T01:49:22;22.50;99.90
19880;DHT22;10102;50.828;4.416;2023-09-12T01:51:50;22.60;99.90
19880;DHT22;10102;50.828;4.416;2023-09-12T01:54:16;22.70;99.90
19880;DHT22;10102;50.828;4.416;2023-09-12T01:56:43;22.80;99.90
19880;DHT22;10102;50.828;4.416;2023-09-12T01:59:11;22.80;99.90
19880;DHT22;10102;50.828;4.416;2023-09-12T02:01:37;22.70;99.90
19880;DHT22;10102;50.828;4.416;2023-09-12T02:06:34;22.80;99.90
19880;DHT22;10102;50.828;4.416;2023-09-12T02:09:00;22.70;99.90
19880;DHT22;10102;50.828;4.416;2023-09-12T02:11:27;22.50;99.90
19880;DHT22;10102;50.828;4.416;2023-09-12T02:13:53;22.50;99.90
19880;DHT22;10102;50.828;4.416;2023-09-12T02:16:19;22.70;99.90
19880;DHT22;10102;50.828;4.416;2023-09-12T02:18:45;22.80;99.90
19880;DHT22;10102;50.828;4.416;2023-09-12T02:21:11;22.70;99.90
19880;DHT22;10102;50.828;4.416;2023-09-12T02:23:37;22.60;99.90
19880;DHT22;10102;50.828;4.416;2023-09-12T02:26:03;22.70;99.90
19880;DHT22;10102;50.828;4.416;2023-09-12T02:28:29;22.70;99.90
19880;DHT22;10102;50.828;4.416;2023-09-12T02:30:55;22.70;99.90
19880;DHT22;10102;50.828;4.416;2023-09-12T02:33:21;22.50;99.90
19880;DHT22;10102;50.828;4.416;2023-09-12T02:35:46;22.60;99.90
19880;DHT22;10102;50.828;4.416;2023-09-12T02:38:13;22.60;99.90
19880;DHT22;10102;50.828;4.416;2023-09-12T02:40:39;22.50;99.90
19880;DHT22;10102;50.828;4.416;2023-09-12T02:43:04;22.70;99.90
19880;DHT22;10102;50.828;4.416;2023-09-12T02:45:31;22.70;99.90
19880;DHT22;10102;50.828;4.416;2023-09-12T02:47:56;22.80;99.90
19880;DHT22;10102;50.828;4.416;2023-09-12T02:50:22;22.80;99.90
19880;DHT22;10102;50.828;4.416;2023-09-12T02:52:48;22.90;99.90
19880;DHT22;10102;50.828;4.416;2023-09-12T02:55:14;22.90;99.90
19880;DHT22;10102;50.828;4.416;2023-09-12T02:57:40;22.70;99.90
19880;DHT22;10102;50.828;4.416;2023-09-12T03:00:06;22.90;99.90
19880;DHT22;10102;50.828;4.416;2023-09-12T03:02:33;23.00;99.90
19880;DHT22;10102;50.828;4.416;2023-09-12T03:05:00;23.00;99.90
19880;DHT22;10102;50.828;4.416;2023-09-12T03:07:27;22.90;99.90
19880;DHT22;10102;50.828;4.416;2023-09-12T03:09:53;22.90;99.90
19880;DHT22;10102;50.828;4.416;2023-09-12T03:12:18;23.00;99.90
19880;DHT22;10102;50.828;4.416;2023-09-12T03:14:45;23.10;99.90
19880;DHT22;10102;50.828;4.416;2023-09-12T03:17:11;22.90;99.90
19880;DHT22;10102;50.828;4.416;2023-09-12T03:19:37;22.80;99.90
19880;DHT22;10102;50.828;4.416;2023-09-12T03:22:03;22.90;99.90
19880;DHT22;10102;50.828;4.416;2023-09-12T03:24:29;22.90;99.90
19880;DHT22;10102;50.828;4.416;2023-09-12T03:26:55;22.80;99.90
19880;DHT22;10102;50.828;4.416;2023-09-12T03:29:22;22.70;99.90
19880;DHT22;10102;50.828;4.416;2023-09-12T03:31:48;22.70;99.90
19880;DHT22;10102;50.828;4.416;2023-09-12T03:34:14;22.70;99.90
19880;DHT22;10102;50.828;4.416;2023-09-12T03:36:40;22.80;99.90
19880;DHT22;10102;50.828;4.416;2023-09-12T03:39:06;22.70;99.90
19880;DHT22;10102;50.828;4.416;2023-09-12T03:41:35;22.70;99.90
19880;DHT22;10102;50.828;4.416;2023-09-12T03:44:01;22.70;99.90
19880;DHT22;10102;50.828;4.416;2023-09-12T03:46:27;22.80;99.90
19880;DHT22;10102;50.828;4.416;2023-09-12T03:48:53;22.80;99.90
19880;DHT22;10102;50.828;4.416;2023-09-12T03:51:19;22.90;99.90
19880;DHT22;10102;50.828;4.416;2023-09-12T03:53:45;22.70;99.90
19880;DHT22;10102;50.828;4.416;2023-09-12T03:56:13;22.90;99.90
19880;DHT22;10102;50.828;4.416;2023-09-12T03:58:41;22.90;99.90
19880;DHT22;10102;50.828;4.416;2023-09-12T04:01:07;23.00;99.90
19880;DHT22;10102;50.828;4.416;2023-09-12T04:03:34;22.90;99.90
19880;DHT22;10102;50.828;4.416;2023-09-12T04:06:00;22.80;99.90
19880;DHT22;10102;50.828;4.416;2023-09-12T04:08:26;22.90;99.90
19880;DHT22;10102;50.828;4.416;2023-09-12T04:10:51;22.80;99.90
19880;DHT22;10102;50.828;4.416;2023-09-12T04:13:17;23.00;99.90
19880;DHT22;10102;50.828;4.416;2023-09-12T04:15:43;22.90;99.90
19880;DHT22;10102;50.828;4.416;2023-09-12T04:18:09;22.70;99.90
19880;DHT22;10102;50.828;4.416;2023-09-12T04:20:35;22.70;99.90
19880;DHT22;10102;50.828;4.416;2023-09-12T04:23:01;22.60;99.90
19880;DHT22;10102;50.828;4.416;2023-09-12T04:25:31;22.70;99.90
19880;DHT22;10102;50.828;4.416;2023-09-12T04:27:57;22.60;99.90
19880;DHT22;10102;50.828;4.416;2023-09-12T04:30:24;22.70;99.90
19880;DHT22;10102;50.828;4.416;2023-09-12T04:32:49;22.50;99.90
19880;DHT22;10102;50.828;4.416;2023-09-12T04:35:15;22.50;99.90
19880;DHT22;10102;50.828;4.416;2023-09-12T04:37:41;22.60;99.90
19880;DHT22;10102;50.828;4.416;2023-09-12T04:40:07;22.50;99.90
19880;DHT22;10102;50.828;4.416;2023-09-12T04:42:34;22.50;99.90
19880;DHT22;10102;50.828;4.416;2023-09-12T04:45:00;22.70;99.90
19880;DHT22;10102;50.828;4.416;2023-09-12T04:47:25;22.50;99.90
19880;DHT22;10102;50.828;4.416;2023-09-12T04:49:54;22.50;99.90
19880;DHT22;10102;50.828;4.416;2023-09-12T04:52:19;22.50;99.90
19880;DHT22;10102;50.828;4.416;2023-09-12T04:57:11;22.40;99.90
19880;DHT22;10102;50.828;4.416;2023-09-12T04:59:38;22.20;99.90
19880;DHT22;10102;50.828;4.416;2023-09-12T05:02:04;22.40;99.90
19880;DHT22;10102;50.828;4.416;2023-09-12T05:04:31;22.30;99.90
19880;DHT22;10102;50.828;4.416;2023-09-12T05:06:58;22.20;99.90
19880;DHT22;10102;50.828;4.416;2023-09-12T05:09:24;22.20;99.90
19880;DHT22;10102;50.828;4.416;2023-09-12T05:14:17;22.20;99.90
19880;DHT22;10102;50.828;4.416;2023-09-12T05:16:43;22.10;99.90
19880;DHT22;10102;50.828;4.416;2023-09-12T05:21:35;21.80;99.90
19880;DHT22;10102;50.828;4.416;2023-09-12T05:24:01;21.90;99.90
19880;DHT22;10102;50.828;4.416;2023-09-12T05:26:26;22.20;99.90
19880;DHT22;10102;50.828;4.416;2023-09-12T05:28:52;22.30;99.90
19880;DHT22;10102;50.828;4.416;2023-09-12T05:31:18;21.90;99.90
19880;DHT22;10102;50.828;4.416;2023-09-12T05:33:45;21.70;99.90
19880;DHT22;10102;50.828;4.416;2023-09-12T05:36:11;21.90;99.90
19880;DHT22;10102;50.828;4.416;2023-09-12T05:38:37;21.90;99.90
19880;DHT22;10102;50.828;4.416;2023-09-12T05:41:02;21.70;99.90
19880;DHT22;10102;50.828;4.416;2023-09-12T05:43:28;21.60;99.90
19880;DHT22;10102;50.828;4.416;2023-09-12T05:45:55;21.80;99.90
19880;DHT22;10102;50.828;4.416;2023-09-12T05:48:23;21.60;99.90
19880;DHT22;10102;50.828;4.416;2023-09-12T05:50:49;22.00;99.90
19880;DHT22;10102;50.828;4.416;2023-09-12T05:53:14;21.90;99.90
19880;DHT22;10102;50.828;4.416;2023-09-12T05:55:40;21.80;99.90
19880;DHT22;10102;50.828;4.416;2023-09-12T05:58:06;21.90;99.90
19880;DHT22;10102;50.828;4.416;2023-09-12T06:00:33;21.90;99.90
19880;DHT22;10102;50.828;4.416;2023-09-12T06:02:59;21.90;99.90
19880;DHT22;10102;50.828;4.416;2023-09-12T06:05:24;21.90;99.90
19880;DHT22;10102;50.828;4.416;2023-09-12T06:07:50;22.00;99.90
19880;DHT22;10102;50.828;4.416;2023-09-12T06:10:16;22.40;99.90
19880;DHT22;10102;50.828;4.416;2023-09-12T06:12:42;22.10;99.90
19880;DHT22;10102;50.828;4.416;2023-09-12T06:15:09;21.90;99.90
19880;DHT22;10102;50.828;4.416;2023-09-12T06:17:35;22.20;99.90
19880;DHT22;10102;50.828;4.416;2023-09-12T06:20:00;22.10;99.90
19880;DHT22;10102;50.828;4.416;2023-09-12T06:22:28;22.10;99.90
19880;DHT22;10102;50.828;4.416;2023-09-12T06:24:54;21.90;99.90
19880;DHT22;10102;50.828;4.416;2023-09-12T06:27:20;22.10;99.90
19880;DHT22;10102;50.828;4.416;2023-09-12T06:29:46;22.40;99.90
19880;DHT22;10102;50.828;4.416;2023-09-12T06:32:14;22.30;99.90
19880;DHT22;10102;50.828;4.416;2023-09-12T06:34:41;22.50;99.90
19880;DHT22;10102;50.828;4.416;2023-09-12T06:39:33;22.50;99.90
19880;DHT22;10102;50.828;4.416;2023-09-12T06:41:59;22.50;99.90
19880;DHT22;10102;50.828;4.416;2023-09-12T06:44:25;22.90;99.90
19880;DHT22;10102;50.828;4.416;2023-09-12T06:46:50;22.80;99.90
19880;DHT22;10102;50.828;4.416;2023-09-12T06:49:16;22.70;99.90
19880;DHT22;10102;50.828;4.416;2023-09-12T06:51:42;23.00;99.90
19880;DHT22;10102;50.828;4.416;2023-09-12T06:54:08;23.20;99.90
19880;DHT22;10102;50.828;4.416;2023-09-12T06:56:34;23.20;99.90
19880;DHT22;10102;50.828;4.416;2023-09-12T06:59:06;23.30;99.90
19880;DHT22;10102;50.828;4.416;2023-09-12T07:01:32;23.30;99.90
19880;DHT22;10102;50.828;4.416;2023-09-12T07:03:57;23.60;99.90
19880;DHT22;10102;50.828;4.416;2023-09-12T07:06:23;23.70;99.90
19880;DHT22;10102;50.828;4.416;2023-09-12T07:08:50;23.80;99.90
19880;DHT22;10102;50.828;4.416;2023-09-12T07:11:19;23.80;99.90
19880;DHT22;10102;50.828;4.416;2023-09-12T07:13:45;23.90;99.90
19880;DHT22;10102;50.828;4.416;2023-09-12T07:16:11;23.90;99.90
19880;DHT22;10102;50.828;4.416;2023-09-12T07:18:40;24.10;99.90
19880;DHT22;10102;50.828;4.416;2023-09-12T07:21:06;24.00;99.90
19880;DHT22;10102;50.828;4.416;2023-09-12T07:23:44;23.80;99.90
19880;DHT22;10102;50.828;4.416;2023-09-12T07:26:14;23.90;99.90
19880;DHT22;10102;50.828;4.416;2023-09-12T07:28:51;24.20;99.90
19880;DHT22;10102;50.828;4.416;2023-09-12T07:31:17;24.20;99.90
19880;DHT22;10102;50.828;4.416;2023-09-12T07:33:44;24.20;99.90
19880;DHT22;10102;50.828;4.416;2023-09-12T07:36:13;24.30;99.90
19880;DHT22;10102;50.828;4.416;2023-09-12T07:38:40;24.40;99.90
19880;DHT22;10102;50.828;4.416;2023-09-12T07:41:07;24.50;99.90
19880;DHT22;10102;50.828;4.416;2023-09-12T07:43:34;24.70;99.90
19880;DHT22;10102;50.828;4.416;2023-09-12T07:46:01;24.40;99.90
19880;DHT22;10102;50.828;4.416;2023-09-12T07:48:27;24.70;99.90
19880;DHT22;10102;50.828;4.416;2023-09-12T07:50:53;24.80;99.90
19880;DHT22;10102;50.828;4.416;2023-09-12T07:53:19;24.70;99.90
19880;DHT22;10102;50.828;4.416;2023-09-12T07:55:45;25.00;99.90
19880;DHT22;10102;50.828;4.416;2023-09-12T07:58:16;25.00;99.90
19880;DHT22;10102;50.828;4.416;2023-09-12T08:00:44;24.30;99.90
19880;DHT22;10102;50.828;4.416;2023-09-12T08:03:10;24.40;99.90
19880;DHT22;10102;50.828;4.416;2023-09-12T08:05:36;24.40;99.90
19880;DHT22;10102;50.828;4.416;2023-09-12T08:08:02;24.40;99.90
19880;DHT22;10102;50.828;4.416;2023-09-12T08:10:28;24.40;99.90
19880;DHT22;10102;50.828;4.416;2023-09-12T08:12:54;24.40;99.90
19880;DHT22;10102;50.828;4.416;2023-09-12T08:17:46;24.20;99.90
19880;DHT22;10102;50.828;4.416;2023-09-12T08:20:18;24.30;99.90
19880;DHT22;10102;50.828;4.416;2023-09-12T08:22:43;24.20;99.90
19880;DHT22;10102;50.828;4.416;2023-09-12T08:25:09;24.30;99.90
19880;DHT22;10102;50.828;4.416;2023-09-12T08:27:35;24.70;99.90
19880;DHT22;10102;50.828;4.416;2023-09-12T08:30:03;24.70;99.90
19880;DHT22;10102;50.828;4.416;2023-09-12T08:32:29;24.60;99.90
19880;DHT22;10102;50.828;4.416;2023-09-12T08:34:55;24.70;99.90
19880;DHT22;10102;50.828;4.416;2023-09-12T08:37:22;25.00;99.90
19880;DHT22;10102;50.828;4.416;2023-09-12T08:39:48;24.80;99.90
19880;DHT22;10102;50.828;4.416;2023-09-12T08:42:16;24.70;99.90
19880;DHT22;10102;50.828;4.416;2023-09-12T08:44:42;24.60;99.90
19880;DHT22;10102;50.828;4.416;2023-09-12T08:47:09;25.00;99.90
19880;DHT22;10102;50.828;4.416;2023-09-12T08:49:38;25.00;99.90
19880;DHT22;10102;50.828;4.416;2023-09-12T08:52:05;25.10;99.90
19880;DHT22;10102;50.828;4.416;2023-09-12T08:54:31;25.10;99.90
19880;DHT22;10102;50.828;4.416;2023-09-12T08:56:57;25.20;99.90
19880;DHT22;10102;50.828;4.416;2023-09-12T08:59:24;25.00;99.90
19880;DHT22;10102;50.828;4.416;2023-09-12T09:01:50;24.90;99.90
19880;DHT22;10102;50.828;4.416;2023-09-12T09:04:19;25.40;99.90
19880;DHT22;10102;50.828;4.416;2023-09-12T09:06:45;25.40;99.90
19880;DHT22;10102;50.828;4.416;2023-09-12T09:09:12;25.90;99.90
19880;DHT22;10102;50.828;4.416;2023-09-12T09:11:38;26.00;99.90
19880;DHT22;10102;50.828;4.416;2023-09-12T09:14:04;26.70;99.90
19880;DHT22;10102;50.828;4.416;2023-09-12T09:16:31;26.50;99.90
19880;DHT22;10102;50.828;4.416;2023-09-12T09:18:59;26.80;99.90
19880;DHT22;10102;50.828;4.416;2023-09-12T09:21:32;26.90;99.90
19880;DHT22;10102;50.828;4.416;2023-09-12T09:24:00;26.70;99.90
19880;DHT22;10102;50.828;4.416;2023-09-12T09:26:45;26.60;99.90
19880;DHT22;10102;50.828;4.416;2023-09-12T09:29:17;26.70;99.90
19880;DHT22;10102;50.828;4.416;2023-09-12T09:31:45;26.80;99.90
19880;DHT22;10102;50.828;4.416;2023-09-12T09:34:16;26.90;99.90
19880;DHT22;10102;50.828;4.416;2023-09-12T09:36:52;26.90;99.90
19880;DHT22;10102;50.828;4.416;2023-09-12T09:39:19;26.90;99.90
19880;DHT22;10102;50.828;4.416;2023-09-12T09:41:53;27.00;99.90
19880;DHT22;10102;50.828;4.416;2023-09-12T09:44:22;26.90;99.90
19880;DHT22;10102;50.828;4.416;2023-09-12T09:46:59;27.00;99.90
19880;DHT22;10102;50.828;4.416;2023-09-12T09:49:31;27.00;99.90
19880;DHT22;10102;50.828;4.416;2023-09-12T09:51:57;27.00;99.90
19880;DHT22;10102;50.828;4.416;2023-09-12T09:54:25;27.20;99.90
19880;DHT22;10102;50.828;4.416;2023-09-12T09:56:57;27.70;99.90
19880;DHT22;10102;50.828;4.416;2023-09-12T09:59:25;28.00;99.90
19880;DHT22;10102;50.828;4.416;2023-09-12T10:01:56;28.20;99.90
19880;DHT22;10102;50.828;4.416;2023-09-12T10:04:23;28.40;99.90
19880;DHT22;10102;50.828;4.416;2023-09-12T10:06:50;28.50;99.90
19880;DHT22;10102;50.828;4.416;2023-09-12T10:09:16;28.50;99.90
19880;DHT22;10102;50.828;4.416;2023-09-12T10:11:47;28.40;99.90
19880;DHT22;10102;50.828;4.416;2023-09-12T10:14:15;28.30;99.90
19880;DHT22;10102;50.828;4.416;2023-09-12T10:16:47;28.40;99.90
19880;DHT22;10102;50.828;4.416;2023-09-12T10:19:26;28.10;99.90
19880;DHT22;10102;50.828;4.416;2023-09-12T10:22:06;28.20;99.90
19880;DHT22;10102;50.828;4.416;2023-09-12T10:24:33;28.60;99.90
19880;DHT22;10102;50.828;4.416;2023-09-12T10:27:01;29.20;99.90
19880;DHT22;10102;50.828;4.416;2023-09-12T10:29:28;29.10;99.90
19880;DHT22;10102;50.828;4.416;2023-09-12T10:31:54;29.20;99.90
19880;DHT22;10102;50.828;4.416;2023-09-12T10:34:20;29.10;99.90
19880;DHT22;10102;50.828;4.416;2023-09-12T10:36:46;29.00;99.90
19880;DHT22;10102;50.828;4.416;2023-09-12T10:39:14;29.60;99.90
19880;DHT22;10102;50.828;4.416;2023-09-12T10:41:41;30.50;99.90
19880;DHT22;10102;50.828;4.416;2023-09-12T10:44:14;30.40;99.90
19880;DHT22;10102;50.828;4.416;2023-09-12T10:46:42;31.20;99.90
19880;DHT22;10102;50.828;4.416;2023-09-12T10:49:12;31.40;99.90
19880;DHT22;10102;50.828;4.416;2023-09-12T10:51:41;33.20;99.90
19880;DHT22;10102;50.828;4.416;2023-09-12T10:54:09;33.10;99.90
19880;DHT22;10102;50.828;4.416;2023-09-12T10:56:38;33.70;99.90
19880;DHT22;10102;50.828;4.416;2023-09-12T11:01:30;37.40;99.90
19880;DHT22;10102;50.828;4.416;2023-09-12T11:03:57;39.20;99.90
19880;DHT22;10102;50.828;4.416;2023-09-12T11:06:28;39.10;99.40
19880;DHT22;10102;50.828;4.416;2023-09-12T11:11:44;40.80;94.40
19880;DHT22;10102;50.828;4.416;2023-09-12T11:14:12;40.20;93.70
19880;DHT22;10102;50.828;4.416;2023-09-12T11:16:38;37.00;95.70
19880;DHT22;10102;50.828;4.416;2023-09-12T11:19:21;35.00;98.10
19880;DHT22;10102;50.828;4.416;2023-09-12T11:21:53;35.50;98.60
19880;DHT22;10102;50.828;4.416;2023-09-12T11:24:20;36.90;97.90
19880;DHT22;10102;50.828;4.416;2023-09-12T11:27:12;37.70;95.10
19880;DHT22;10102;50.828;4.416;2023-09-12T11:29:39;38.10;94.80
19880;DHT22;10102;50.828;4.416;2023-09-12T11:32:06;38.50;94.00
19880;DHT22;10102;50.828;4.416;2023-09-12T11:34:43;38.00;93.90
19880;DHT22;10102;50.828;4.416;2023-09-12T11:37:10;37.60;93.20
19880;DHT22;10102;50.828;4.416;2023-09-12T11:39:39;39.20;92.30
19880;DHT22;10102;50.828;4.416;2023-09-12T11:42:10;41.90;90.10
19880;DHT22;10102;50.828;4.416;2023-09-12T11:44:39;43.30;82.60
19880;DHT22;10102;50.828;4.416;2023-09-12T11:47:06;44.40;75.60
19880;DHT22;10102;50.828;4.416;2023-09-12T11:49:40;45.30;73.90
19880;DHT22;10102;50.828;4.416;2023-09-12T11:52:14;44.10;73.70
19880;DHT22;10102;50.828;4.416;2023-09-12T11:54:42;44.70;72.10
19880;DHT22;10102;50.828;4.416;2023-09-12T11:57:09;45.30;70.10
19880;DHT22;10102;50.828;4.416;2023-09-12T11:59:40;46.20;67.30
19880;DHT22;10102;50.828;4.416;2023-09-12T12:02:07;46.30;66.10
19880;DHT22;10102;50.828;4.416;2023-09-12T12:04:34;45.70;65.30
19880;DHT22;10102;50.828;4.416;2023-09-12T12:07:01;43.90;68.50
19880;DHT22;10102;50.828;4.416;2023-09-12T12:09:33;42.80;71.20
19880;DHT22;10102;50.828;4.416;2023-09-12T12:12:12;43.50;69.70
19880;DHT22;10102;50.828;4.416;2023-09-12T12:14:39;41.50;72.30
19880;DHT22;10102;50.828;4.416;2023-09-12T12:17:09;39.50;76.30
19880;DHT22;10102;50.828;4.416;2023-09-12T12:19:38;37.90;79.70
19880;DHT22;10102;50.828;4.416;2023-09-12T12:22:05;36.20;84.10
19880;DHT22;10102;50.828;4.416;2023-09-12T12:24:45;35.80;86.90
19880;DHT22;10102;50.828;4.416;2023-09-12T12:27:11;35.50;89.00
19880;DHT22;10102;50.828;4.416;2023-09-12T12:29:39;35.20;89.30
19880;DHT22;10102;50.828;4.416;2023-09-12T12:32:05;34.70;90.50
19880;DHT22;10102;50.828;4.416;2023-09-12T12:34:32;35.70;90.20
19880;DHT22;10102;50.828;4.416;2023-09-12T12:36:57;34.80;90.00
19880;DHT22;10102;50.828;4.416;2023-09-12T12:39:23;35.00;90.50
19880;DHT22;10102;50.828;4.416;2023-09-12T12:41:52;34.90;90.50
19880;DHT22;10102;50.828;4.416;2023-09-12T12:44:18;33.70;92.20
19880;DHT22;10102;50.828;4.416;2023-09-12T12:46:50;33.20;93.00
19880;DHT22;10102;50.828;4.416;2023-09-12T12:49:18;32.50;94.00
19880;DHT22;10102;50.828;4.416;2023-09-12T12:51:45;32.40;94.80
19880;DHT22;10102;50.828;4.416;2023-09-12T12:54:11;31.80;95.70
19880;DHT22;10102;50.828;4.416;2023-09-12T12:56:37;31.70;96.30
19880;DHT22;10102;50.828;4.416;2023-09-12T12:59:06;31.60;97.40
19880;DHT22;10102;50.828;4.416;2023-09-12T13:01:36;31.30;97.30
19880;DHT22;10102;50.828;4.416;2023-09-12T13:04:04;31.00;97.40
19880;DHT22;10102;50.828;4.416;2023-09-12T13:06:30;30.60;98.10
19880;DHT22;10102;50.828;4.416;2023-09-12T13:08:55;30.20;99.30
19880;DHT22;10102;50.828;4.416;2023-09-12T13:11:27;30.20;99.60
19880;DHT22;10102;50.828;4.416;2023-09-12T13:13:52;30.30;99.80
19880;DHT22;10102;50.828;4.416;2023-09-12T13:16:18;30.40;99.90
19880;DHT22;10102;50.828;4.416;2023-09-12T13:18:44;30.40;99.90
19880;DHT22;10102;50.828;4.416;2023-09-12T13:21:11;30.30;99.90
19880;DHT22;10102;50.828;4.416;2023-09-12T13:23:38;30.00;99.90
19880;DHT22;10102;50.828;4.416;2023-09-12T13:26:05;29.90;99.90
19880;DHT22;10102;50.828;4.416;2023-09-12T13:28:31;29.90;99.90
19880;DHT22;10102;50.828;4.416;2023-09-12T13:30:57;29.40;99.90
19880;DHT22;10102;50.828;4.416;2023-09-12T13:33:24;29.40;99.90
19880;DHT22;10102;50.828;4.416;2023-09-12T13:35:50;29.20;99.90
19880;DHT22;10102;50.828;4.416;2023-09-12T13:38:17;29.00;99.90
19880;DHT22;10102;50.828;4.416;2023-09-12T13:40:45;28.80;99.90
19880;DHT22;10102;50.828;4.416;2023-09-12T13:43:11;28.70;99.90
19880;DHT22;10102;50.828;4.416;2023-09-12T13:45:37;28.60;99.90
19880;DHT22;10102;50.828;4.416;2023-09-12T13:48:04;28.40;99.90
19880;DHT22;10102;50.828;4.416;2023-09-12T13:50:31;28.40;99.90
19880;DHT22;10102;50.828;4.416;2023-09-12T13:53:01;28.40;99.90
19880;DHT22;10102;50.828;4.416;2023-09-12T13:55:36;28.40;99.90
19880;DHT22;10102;50.828;4.416;2023-09-12T13:58:06;28.50;99.90
19880;DHT22;10102;50.828;4.416;2023-09-12T14:00:33;28.30;99.90
19880;DHT22;10102;50.828;4.416;2023-09-12T14:03:01;28.00;99.90
19880;DHT22;10102;50.828;4.416;2023-09-12T14:05:32;28.10;99.90
19880;DHT22;10102;50.828;4.416;2023-09-12T14:07:59;27.90;99.90
19880;DHT22;10102;50.828;4.416;2023-09-12T14:10:24;27.80;99.90
19880;DHT22;10102;50.828;4.416;2023-09-12T14:12:50;27.70;99.90
19880;DHT22;10102;50.828;4.416;2023-09-12T14:15:16;27.70;99.90
19880;DHT22;10102;50.828;4.416;2023-09-12T14:17:42;27.50;99.90
19880;DHT22;10102;50.828;4.416;2023-09-12T14:20:08;27.80;99.90
19880;DHT22;10102;50.828;4.416;2023-09-12T14:22:35;27.60;99.90
19880;DHT22;10102;50.828;4.416;2023-09-12T14:25:00;27.40;99.90
19880;DHT22;10102;50.828;4.416;2023-09-12T14:27:28;27.60;99.90
19880;DHT22;10102;50.828;4.416;2023-09-12T14:29:53;27.10;99.90
19880;DHT22;10102;50.828;4.416;2023-09-12T14:32:20;27.40;99.90
19880;DHT22;10102;50.828;4.416;2023-09-12T14:34:46;27.50;99.90
19880;DHT22;10102;50.828;4.416;2023-09-12T14:37:12;27.50;99.90
19880;DHT22;10102;50.828;4.416;2023-09-12T14:39:37;27.40;99.90
19880;DHT22;10102;50.828;4.416;2023-09-12T14:42:03;27.30;99.90
19880;DHT22;10102;50.828;4.416;2023-09-12T14:44:35;27.40;99.90
19880;DHT22;10102;50.828;4.416;2023-09-12T14:47:02;27.40;99.90
19880;DHT22;10102;50.828;4.416;2023-09-12T14:49:28;27.50;99.90
19880;DHT22;10102;50.828;4.416;2023-09-12T14:51:54;27.60;99.90
19880;DHT22;10102;50.828;4.416;2023-09-12T14:54:19;27.60;99.90
19880;DHT22;10102;50.828;4.416;2023-09-12T14:56:48;27.60;99.90
19880;DHT22;10102;50.828;4.416;2023-09-12T14:59:14;27.50;99.90
19880;DHT22;10102;50.828;4.416;2023-09-12T15:01:42;27.40;99.90
19880;DHT22;10102;50.828;4.416;2023-09-12T15:04:08;27.40;99.90
19880;DHT22;10102;50.828;4.416;2023-09-12T15:06:34;27.40;99.90
19880;DHT22;10102;50.828;4.416;2023-09-12T15:09:00;27.30;99.90
19880;DHT22;10102;50.828;4.416;2023-09-12T15:11:26;27.30;99.90
19880;DHT22;10102;50.828;4.416;2023-09-12T15:13:51;27.40;99.90
19880;DHT22;10102;50.828;4.416;2023-09-12T15:16:17;27.00;99.90
19880;DHT22;10102;50.828;4.416;2023-09-12T15:18:43;27.20;99.90
19880;DHT22;10102;50.828;4.416;2023-09-12T15:21:09;27.00;99.90
19880;DHT22;10102;50.828;4.416;2023-09-12T15:23:35;26.60;99.90
19880;DHT22;10102;50.828;4.416;2023-09-12T15:26:01;26.80;99.90
19880;DHT22;10102;50.828;4.416;2023-09-12T15:28:27;26.70;99.90
19880;DHT22;10102;50.828;4.416;2023-09-12T15:30:53;26.70;99.90
19880;DHT22;10102;50.828;4.416;2023-09-12T15:33:20;26.60;99.90
19880;DHT22;10102;50.828;4.416;2023-09-12T15:35:48;26.50;99.90
19880;DHT22;10102;50.828;4.416;2023-09-12T15:38:14;26.50;99.90
19880;DHT22;10102;50.828;4.416;2023-09-12T15:40:40;26.30;99.90
19880;DHT22;10102;50.828;4.416;2023-09-12T15:43:06;26.20;99.90
19880;DHT22;10102;50.828;4.416;2023-09-12T15:45:33;26.20;99.90
19880;DHT22;10102;50.828;4.416;2023-09-12T15:47:59;26.20;99.90
19880;DHT22;10102;50.828;4.416;2023-09-12T15:50:24;26.10;99.90
19880;DHT22;10102;50.828;4.416;2023-09-12T15:52:50;26.30;99.90
19880;DHT22;10102;50.828;4.416;2023-09-12T15:55:16;26.10;99.90
19880;DHT22;10102;50.828;4.416;2023-09-12T15:57:42;26.30;99.90
19880;DHT22;10102;50.828;4.416;2023-09-12T16:00:08;26.10;99.90